HESC

St Catherine International Airport

Egypt
TAF HESC 170500Z 1706/1812 35010KT CAVOK
Issued Valid From Valid To
Nov-17 @ 05:00 UTC
(4 hours ago)
Nov-17 @ 06:00 UTC
(3 hours ago)
Nov-18 @ 12:00 UTC
(-1 days ago)
Nov-17 @ 06:00 to Nov-18 @ 12:00
TAF HESC 170500Z 1706/1812 35010KT CAVOK
Wind Visibility Clouds Conditions
350° at 10 knots 10,000+ meters
  • No significant clouds
TAF HESC 170500Z 1706/1812 35010KT CAVOK
Issued Nov-17 @ 05:00 UTC
(4 hours ago)
Valid From Nov-17 @ 06:00 UTC
(3 hours ago)
Valid To Nov-18 @ 12:00 UTC
(-1 days ago)
Nov-17 @ 06:00 - Nov-18 @ 12:00
Wind Visibility
350° at 10 knots 10,000+ meters
Clouds
  • No significant clouds
Conditions